sensor_id;sensor_type;location;lat;lon;timestamp;pressure;altitude;pressure_sealevel;temperature;humidity
24746;BME280;12845;52.042;6.838;2023-01-28T00:05:17;66931.50;;;1.38;100.00
24746;BME280;12845;52.042;6.838;2023-01-28T00:07:51;66930.94;;;1.37;100.00
24746;BME280;12845;52.042;6.838;2023-01-28T00:10:17;66929.25;;;1.35;100.00
24746;BME280;12845;52.042;6.838;2023-01-28T00:12:43;66930.38;;;1.37;100.00
24746;BME280;12845;52.042;6.838;2023-01-28T00:17:34;66926.25;;;1.38;100.00
24746;BME280;12845;52.042;6.838;2023-01-28T00:22:26;66930.94;;;1.37;100.00
24746;BME280;12845;52.042;6.838;2023-01-28T00:32:06;66931.28;;;1.35;100.00
24746;BME280;12845;52.042;6.838;2023-01-28T00:34:31;66927.56;;;1.34;100.00
24746;BME280;12845;52.042;6.838;2023-01-28T00:36:57;66919.69;;;1.34;100.00
24746;BME280;12845;52.042;6.838;2023-01-28T00:41:47;66924.94;;;1.27;100.00
24746;BME280;12845;52.042;6.838;2023-01-28T00:46:37;66916.13;;;1.28;100.00
24746;BME280;12845;52.042;6.838;2023-01-28T00:49:03;66928.66;;;1.28;100.00
24746;BME280;12845;52.042;6.838;2023-01-28T00:51:28;66920.25;;;1.27;100.00
24746;BME280;12845;52.042;6.838;2023-01-28T00:56:19;66916.31;;;1.24;100.00
24746;BME280;12845;52.042;6.838;2023-01-28T00:58:44;66916.31;;;1.24;100.00
24746;BME280;12845;52.042;6.838;2023-01-28T01:08:25;66914.06;;;1.22;100.00
24746;BME280;12845;52.042;6.838;2023-01-28T01:10:59;66911.81;;;1.20;100.00
24746;BME280;12845;52.042;6.838;2023-01-28T01:13:24;66907.88;;;1.16;100.00
24746;BME280;12845;52.042;6.838;2023-01-28T01:15:49;66908.97;;;1.17;100.00
24746;BME280;12845;52.042;6.838;2023-01-28T01:18:14;66907.31;;;1.16;100.00
24746;BME280;12845;52.042;6.838;2023-01-28T01:20:40;66911.03;;;1.17;100.00
24746;BME280;12845;52.042;6.838;2023-01-28T01:23:09;66910.84;;;1.14;100.00
24746;BME280;12845;52.042;6.838;2023-01-28T01:25:34;66911.03;;;1.17;100.00
24746;BME280;12845;52.042;6.838;2023-01-28T01:28:00;66906.16;;;1.15;100.00
24746;BME280;12845;52.042;6.838;2023-01-28T01:30:25;66901.69;;;1.10;100.00
24746;BME280;12845;52.042;6.838;2023-01-28T01:32:51;66897.16;;;1.06;100.00
24746;BME280;12845;52.042;6.838;2023-01-28T01:35:16;66890.25;;;1.05;100.00
24746;BME280;12845;52.042;6.838;2023-01-28T01:37:42;66894.91;;;1.04;100.00
24746;BME280;12845;52.042;6.838;2023-01-28T01:42:33;66892.66;;;1.02;100.00
24746;BME280;12845;52.042;6.838;2023-01-28T01:54:55;66886.47;;;0.97;100.00
24746;BME280;12845;52.042;6.838;2023-01-28T01:57:23;66887.59;;;0.98;100.00
24746;BME280;12845;52.042;6.838;2023-01-28T01:59:50;66887.03;;;0.97;100.00
24746;BME280;12845;52.042;6.838;2023-01-28T02:02:16;66883.66;;;0.94;100.00
24746;BME280;12845;52.042;6.838;2023-01-28T02:04:42;66883.50;;;0.99;100.00
24746;BME280;12845;52.042;6.838;2023-01-28T02:07:09;66880.28;;;0.91;100.00
24746;BME280;12845;52.042;6.838;2023-01-28T02:14:26;66881.41;;;0.92;100.00
24746;BME280;12845;52.042;6.838;2023-01-28T02:19:17;66879.53;;;0.88;100.00
24746;BME280;12845;52.042;6.838;2023-01-28T02:34:13;66849.72;;;0.68;100.00
24746;BME280;12845;52.042;6.838;2023-01-28T02:36:53;66859.84;;;0.70;100.00
24746;BME280;12845;52.042;6.838;2023-01-28T02:41:51;66856.09;;;0.69;100.00
24746;BME280;12845;52.042;6.838;2023-01-28T02:44:17;66843.53;;;0.62;100.00
24746;BME280;12845;52.042;6.838;2023-01-28T02:46:42;66845.41;;;0.59;100.00
24746;BME280;12845;52.042;6.838;2023-01-28T02:49:37;66842.44;;;0.61;100.00
24746;BME280;12845;52.042;6.838;2023-01-28T02:54:32;66839.78;;;0.54;100.00
24746;BME280;12845;52.042;6.838;2023-01-28T02:57:24;66831.16;;;0.51;100.00
24746;BME280;12845;52.042;6.838;2023-01-28T03:04:52;66835.66;;;0.48;100.00
24746;BME280;12845;52.042;6.838;2023-01-28T03:07:19;66836.41;;;0.51;100.00
24746;BME280;12845;52.042;6.838;2023-01-28T03:12:13;66827.78;;;0.41;100.00
24746;BME280;12845;52.042;6.838;2023-01-28T03:15:04;66827.41;;;0.43;100.00
24746;BME280;12845;52.042;6.838;2023-01-28T03:23:51;66819.53;;;0.36;100.00
24746;BME280;12845;52.042;6.838;2023-01-28T03:26:37;66819.91;;;0.34;100.00
24746;BME280;12845;52.042;6.838;2023-01-28T03:29:24;66818.78;;;0.33;100.00
24746;BME280;12845;52.042;6.838;2023-01-28T03:32:09;66812.78;;;0.30;100.00
24746;BME280;12845;52.042;6.838;2023-01-28T03:34:54;66820.28;;;0.32;100.00
24746;BME280;12845;52.042;6.838;2023-01-28T03:37:38;66808.66;;;0.24;100.00
24746;BME280;12845;52.042;6.838;2023-01-28T03:40:05;66804.91;;;0.22;100.00
24746;BME280;12845;52.042;6.838;2023-01-28T03:44:56;66795.91;;;0.14;100.00
24746;BME280;12845;52.042;6.838;2023-01-28T03:49:48;66792.53;;;0.11;100.00
24746;BME280;12845;52.042;6.838;2023-01-28T03:52:14;66789.16;;;0.08;100.00
24746;BME280;12845;52.042;6.838;2023-01-28T03:54:39;66791.78;;;0.08;100.00
24746;BME280;12845;52.042;6.838;2023-01-28T03:57:05;66788.41;;;0.05;100.00
24746;BME280;12845;52.042;6.838;2023-01-28T03:59:33;66786.34;;;0.06;100.00
24746;BME280;12845;52.042;6.838;2023-01-28T04:01:58;66784.69;;;0.04;100.00
24746;BME280;12845;52.042;6.838;2023-01-28T04:04:24;66781.31;;;0.01;100.00
24746;BME280;12845;52.042;6.838;2023-01-28T04:06:52;66779.78;;;-0.05;100.00
24746;BME280;12845;52.042;6.838;2023-01-28T04:09:19;66774.56;;;-0.05;100.00
24746;BME280;12845;52.042;6.838;2023-01-28T04:11:45;66777.94;;;-0.02;100.00
24746;BME280;12845;52.042;6.838;2023-01-28T04:16:36;66776.78;;;-0.03;100.00
24746;BME280;12845;52.042;6.838;2023-01-28T04:19:01;66774.00;;;-0.06;100.00
24746;BME280;12845;52.042;6.838;2023-01-28T04:21:29;66773.81;;;-0.08;100.00
24746;BME280;12845;52.042;6.838;2023-01-28T04:23:54;66774.56;;;-0.05;100.00
24746;BME280;12845;52.042;6.838;2023-01-28T04:28:45;66774.56;;;-0.05;100.00
24746;BME280;12845;52.042;6.838;2023-01-28T04:31:11;66777.75;;;-0.05;100.00
24746;BME280;12845;52.042;6.838;2023-01-28T04:36:01;66772.88;;;-0.07;100.00
24746;BME280;12845;52.042;6.838;2023-01-28T04:38:26;66773.44;;;-0.06;100.00
24746;BME280;12845;52.042;6.838;2023-01-28T04:40:52;66761.44;;;-0.12;100.00
24746;BME280;12845;52.042;6.838;2023-01-28T04:43:17;66774.16;;;-0.10;100.00
24746;BME280;12845;52.042;6.838;2023-01-28T04:45:44;66766.69;;;-0.12;100.00
24746;BME280;12845;52.042;6.838;2023-01-28T04:48:09;66755.28;;;-0.18;100.00
24746;BME280;12845;52.042;6.838;2023-01-28T04:50:34;66766.13;;;-0.13;100.00
24746;BME280;12845;52.042;6.838;2023-01-28T04:52:59;66763.69;;;-0.17;100.00
24746;BME280;12845;52.042;6.838;2023-01-28T04:55:25;66758.09;;;-0.15;100.00
24746;BME280;12845;52.042;6.838;2023-01-28T05:00:15;66766.13;;;-0.13;100.00
24746;BME280;12845;52.042;6.838;2023-01-28T05:05:06;66764.44;;;-0.14;100.00
24746;BME280;12845;52.042;6.838;2023-01-28T05:07:33;66763.31;;;-0.15;100.00
24746;BME280;12845;52.042;6.838;2023-01-28T05:12:23;66757.69;;;-0.20;100.00
24746;BME280;12845;52.042;6.838;2023-01-28T05:14:48;66747.97;;;-0.25;100.00
24746;BME280;12845;52.042;6.838;2023-01-28T05:17:14;66753.75;;;-0.24;100.00
24746;BME280;12845;52.042;6.838;2023-01-28T05:19:39;66753.19;;;-0.25;100.00
24746;BME280;12845;52.042;6.838;2023-01-28T05:22:04;66749.06;;;-0.31;100.00
24746;BME280;12845;52.042;6.838;2023-01-28T05:24:29;66741.94;;;-0.35;100.00
24746;BME280;12845;52.042;6.838;2023-01-28T05:26:54;66738.56;;;-0.38;100.00
24746;BME280;12845;52.042;6.838;2023-01-28T05:29:20;66736.91;;;-0.39;100.00
24746;BME280;12845;52.042;6.838;2023-01-28T05:31:46;66736.91;;;-0.39;100.00
24746;BME280;12845;52.042;6.838;2023-01-28T05:34:11;66738.97;;;-0.40;100.00
24746;BME280;12845;52.042;6.838;2023-01-28T05:36:36;66737.81;;;-0.41;100.00
24746;BME280;12845;52.042;6.838;2023-01-28T05:39:02;66726.22;;;-0.49;100.00
24746;BME280;12845;52.042;6.838;2023-01-28T05:41:27;66724.53;;;-0.51;100.00
24746;BME280;12845;52.042;6.838;2023-01-28T05:43:52;66719.47;;;-0.55;100.00
24746;BME280;12845;52.042;6.838;2023-01-28T05:46:17;66713.88;;;-0.60;100.00
24746;BME280;12845;52.042;6.838;2023-01-28T05:48:43;66725.84;;;-0.54;100.00
24746;BME280;12845;52.042;6.838;2023-01-28T05:53:33;66709.38;;;-0.64;100.00
24746;BME280;12845;52.042;6.838;2023-01-28T05:55:58;66700.38;;;-0.73;100.00
24746;BME280;12845;52.042;6.838;2023-01-28T05:58:23;66699.63;;;-0.76;100.00
24746;BME280;12845;52.042;6.838;2023-01-28T06:00:53;66692.53;;;-0.80;100.00
24746;BME280;12845;52.042;6.838;2023-01-28T06:03:18;66689.72;;;-0.82;100.00
24746;BME280;12845;52.042;6.838;2023-01-28T06:05:43;66695.13;;;-0.80;100.00
24746;BME280;12845;52.042;6.838;2023-01-28T06:08:08;66687.44;;;-0.84;100.00
24746;BME280;12845;52.042;6.838;2023-01-28T06:10:34;66697.94;;;-0.77;100.00
24746;BME280;12845;52.042;6.838;2023-01-28T06:12:59;66694.75;;;-0.78;100.00
24746;BME280;12845;52.042;6.838;2023-01-28T06:15:24;66696.25;;;-0.79;100.00
24746;BME280;12845;52.042;6.838;2023-01-28T06:17:50;66694.75;;;-0.78;100.00
24746;BME280;12845;52.042;6.838;2023-01-28T06:20:15;66694.75;;;-0.78;100.00
24746;BME280;12845;52.042;6.838;2023-01-28T06:22:41;66691.97;;;-0.80;100.00
24746;BME280;12845;52.042;6.838;2023-01-28T06:27:31;66695.13;;;-0.80;100.00
24746;BME280;12845;52.042;6.838;2023-01-28T06:29:56;66697.75;;;-0.80;100.00
24746;BME280;12845;52.042;6.838;2023-01-28T06:32:21;66698.84;;;-0.79;100.00
24746;BME280;12845;52.042;6.838;2023-01-28T06:34:47;66695.88;;;-0.77;100.00
24746;BME280;12845;52.042;6.838;2023-01-28T06:39:37;66691.38;;;-0.81;100.00
24746;BME280;12845;52.042;6.838;2023-01-28T06:42:02;66689.16;;;-0.83;100.00
24746;BME280;12845;52.042;6.838;2023-01-28T06:44:28;66688.59;;;-0.83;100.00
24746;BME280;12845;52.042;6.838;2023-01-28T06:49:18;66686.13;;;-0.88;100.00
24746;BME280;12845;52.042;6.838;2023-01-28T06:51:44;66685.19;;;-0.86;100.00
24746;BME280;12845;52.042;6.838;2023-01-28T06:54:09;66684.63;;;-0.87;100.00
24746;BME280;12845;52.042;6.838;2023-01-28T06:56:35;66692.53;;;-0.80;100.00
24746;BME280;12845;52.042;6.838;2023-01-28T06:59:00;66689.72;;;-0.82;100.00
24746;BME280;12845;52.042;6.838;2023-01-28T07:01:25;66696.25;;;-0.79;100.00
24746;BME280;12845;52.042;6.838;2023-01-28T07:03:50;66692.53;;;-0.80;100.00
24746;BME280;12845;52.042;6.838;2023-01-28T07:06:16;66689.53;;;-0.78;100.00
24746;BME280;12845;52.042;6.838;2023-01-28T07:08:41;66698.69;;;-0.74;100.00
24746;BME280;12845;52.042;6.838;2023-01-28T07:11:06;66699.63;;;-0.76;100.00
24746;BME280;12845;52.042;6.838;2023-01-28T07:13:31;66707.13;;;-0.66;100.00
24746;BME280;12845;52.042;6.838;2023-01-28T07:15:57;66701.31;;;-0.67;100.00
24746;BME280;12845;52.042;6.838;2023-01-28T07:20:47;66702.97;;;-0.73;100.00
24746;BME280;12845;52.042;6.838;2023-01-28T07:23:12;66701.50;;;-0.72;100.00
24746;BME280;12845;52.042;6.838;2023-01-28T07:25:37;66702.97;;;-0.73;100.00
24746;BME280;12845;52.042;6.838;2023-01-28T07:30:28;66706.16;;;-0.72;100.00
24746;BME280;12845;52.042;6.838;2023-01-28T07:32:54;66702.63;;;-0.71;100.00
24746;BME280;12845;52.042;6.838;2023-01-28T07:35:19;66705.78;;;-0.70;100.00
24746;BME280;12845;52.042;6.838;2023-01-28T07:40:10;66709.38;;;-0.64;100.00
24746;BME280;12845;52.042;6.838;2023-01-28T07:45:01;66709.38;;;-0.64;100.00
24746;BME280;12845;52.042;6.838;2023-01-28T07:47:26;66717.59;;;-0.59;100.00
24746;BME280;12845;52.042;6.838;2023-01-28T07:49:51;66719.84;;;-0.57;100.00
24746;BME280;12845;52.042;6.838;2023-01-28T07:52:16;66719.47;;;-0.55;100.00
24746;BME280;12845;52.042;6.838;2023-01-28T07:59:33;66725.09;;;-0.50;100.00
24746;BME280;12845;52.042;6.838;2023-01-28T08:01:59;66734.25;;;-0.47;100.00
24746;BME280;12845;52.042;6.838;2023-01-28T08:04:25;66727.16;;;-0.51;100.00
24746;BME280;12845;52.042;6.838;2023-01-28T08:06:50;66727.34;;;-0.48;100.00
24746;BME280;12845;52.042;6.838;2023-01-28T08:43:10;66761.81;;;-0.21;100.00
24746;BME280;12845;52.042;6.838;2023-01-28T08:45:36;66753.75;;;-0.24;100.00
24746;BME280;12845;52.042;6.838;2023-01-28T08:48:03;66765.56;;;-0.13;100.00
24746;BME280;12845;52.042;6.838;2023-01-28T08:50:31;66760.88;;;-0.20;100.00
24746;BME280;12845;52.042;6.838;2023-01-28T08:52:57;66746.28;;;-0.26;100.00
24746;BME280;12845;52.042;6.838;2023-01-28T08:55:23;66756.56;;;-0.21;100.00
24746;BME280;12845;52.042;6.838;2023-01-28T08:57:49;66757.69;;;-0.20;100.00
24746;BME280;12845;52.042;6.838;2023-01-28T09:02:39;66767.06;;;-0.14;100.00
24746;BME280;12845;52.042;6.838;2023-01-28T09:05:04;66765.38;;;-0.16;100.00
24746;BME280;12845;52.042;6.838;2023-01-28T09:09:55;66775.69;;;-0.04;100.00
24746;BME280;12845;52.042;6.838;2023-01-28T09:12:20;66785.03;;;0.02;100.00
24746;BME280;12845;52.042;6.838;2023-01-28T09:14:46;66789.16;;;0.08;100.00
24746;BME280;12845;52.042;6.838;2023-01-28T09:17:11;66796.84;;;0.13;100.00
24746;BME280;12845;52.042;6.838;2023-01-28T09:19:36;66792.53;;;0.11;100.00
24746;BME280;12845;52.042;6.838;2023-01-28T09:22:04;66798.16;;;0.16;100.00
24746;BME280;12845;52.042;6.838;2023-01-28T09:24:30;66802.69;;;0.20;100.00
24746;BME280;12845;52.042;6.838;2023-01-28T09:26:55;66798.53;;;0.14;100.00
24746;BME280;12845;52.042;6.838;2023-01-28T09:29:20;66800.78;;;0.16;100.00
24746;BME280;12845;52.042;6.838;2023-01-28T09:31:46;66799.88;;;0.18;100.00
24746;BME280;12845;52.042;6.838;2023-01-28T09:36:36;66803.03;;;0.18;100.00
24746;BME280;12845;52.042;6.838;2023-01-28T09:44:01;66789.16;;;0.08;100.00
24746;BME280;12845;52.042;6.838;2023-01-28T09:48:53;66785.25;;;0.05;100.00
24746;BME280;12845;52.042;6.838;2023-01-28T09:56:23;66797.59;;;0.16;100.00
24746;BME280;12845;52.042;6.838;2023-01-28T09:58:49;66795.91;;;0.14;100.00
24746;BME280;12845;52.042;6.838;2023-01-28T10:04:23;66801.53;;;0.19;100.00
24746;BME280;12845;52.042;6.838;2023-01-28T10:17:00;66798.72;;;0.17;100.00
24746;BME280;12845;52.042;6.838;2023-01-28T10:19:36;66804.91;;;0.22;100.00
24746;BME280;12845;52.042;6.838;2023-01-28T10:26:55;66798.72;;;0.17;100.00
24746;BME280;12845;52.042;6.838;2023-01-28T10:29:22;66797.44;;;0.20;100.00
24746;BME280;12845;52.042;6.838;2023-01-28T10:34:14;66808.88;;;0.26;100.00
24746;BME280;12845;52.042;6.838;2023-01-28T10:36:39;66808.47;;;0.21;100.00
24746;BME280;12845;52.042;6.838;2023-01-28T10:41:31;66818.97;;;0.35;100.00
24746;BME280;12845;52.042;6.838;2023-01-28T10:43:57;66820.66;;;0.37;100.00
24746;BME280;12845;52.042;6.838;2023-01-28T10:46:31;66827.78;;;0.41;100.00
24746;BME280;12845;52.042;6.838;2023-01-28T10:49:03;66822.16;;;0.36;100.00
24746;BME280;12845;52.042;6.838;2023-01-28T10:51:31;66815.06;;;0.32;100.00
24746;BME280;12845;52.042;6.838;2023-01-28T10:53:57;66818.41;;;0.35;100.00
24746;BME280;12845;52.042;6.838;2023-01-28T10:56:23;66826.28;;;0.42;100.00
24746;BME280;12845;52.042;6.838;2023-01-28T10:59:00;66829.66;;;0.45;100.00
24746;BME280;12845;52.042;6.838;2023-01-28T11:01:37;66826.28;;;0.42;100.00
24746;BME280;12845;52.042;6.838;2023-01-28T11:04:03;66834.72;;;0.50;100.00
24746;BME280;12845;52.042;6.838;2023-01-28T11:06:28;66854.22;;;0.65;100.00
24746;BME280;12845;52.042;6.838;2023-01-28T11:08:54;66862.28;;;0.75;100.00
24746;BME280;12845;52.042;6.838;2023-01-28T11:11:23;66869.03;;;0.81;100.00
24746;BME280;12845;52.042;6.838;2023-01-28T11:13:50;66866.78;;;0.79;100.00
24746;BME280;12845;52.042;6.838;2023-01-28T11:16:16;66883.66;;;0.94;100.00
24746;BME280;12845;52.042;6.838;2023-01-28T11:19:01;66876.91;;;0.88;100.00
24746;BME280;12845;52.042;6.838;2023-01-28T11:26:18;66876.91;;;0.88;100.00
24746;BME280;12845;52.042;6.838;2023-01-28T11:31:12;66878.59;;;0.89;100.00
24746;BME280;12845;52.042;6.838;2023-01-28T11:33:42;66908.78;;;1.15;100.00
24746;BME280;12845;52.042;6.838;2023-01-28T11:38:33;66924.75;;;1.31;100.00
24746;BME280;12845;52.042;6.838;2023-01-28T11:40:58;66925.88;;;1.32;100.00
24746;BME280;12845;52.042;6.838;2023-01-28T11:43:29;66930.19;;;1.34;100.00
24746;BME280;12845;52.042;6.838;2023-01-28T11:57:01;66976.34;;;1.83;100.00
24746;BME280;12845;52.042;6.838;2023-01-28T12:47:36;67026.66;;;2.24;100.00
24746;BME280;12845;52.042;6.838;2023-01-28T12:50:13;67043.56;;;2.46;100.00
24746;BME280;12845;52.042;6.838;2023-01-28T12:52:46;67050.34;;;2.45;100.00
24746;BME280;12845;52.042;6.838;2023-01-28T12:57:39;67057.47;;;2.57;100.00
24746;BME280;12845;52.042;6.838;2023-01-28T13:02:51;67073.78;;;2.64;100.00
24746;BME280;12845;52.042;6.838;2023-01-28T13:12:54;67084.13;;;2.76;100.00
24746;BME280;12845;52.042;6.838;2023-01-28T13:15:20;67094.28;;;2.85;100.00
24746;BME280;12845;52.042;6.838;2023-01-28T13:20:15;67083.00;;;2.75;100.00
24746;BME280;12845;52.042;6.838;2023-01-28T13:27:31;67089.22;;;2.81;100.00
24746;BME280;12845;52.042;6.838;2023-01-28T13:30:00;67104.44;;;2.94;100.00
24746;BME280;12845;52.042;6.838;2023-01-28T13:32:30;67104.81;;;3.00;100.00
24746;BME280;12845;52.042;6.838;2023-01-28T13:35:00;67095.78;;;2.91;100.00
24746;BME280;12845;52.042;6.838;2023-01-28T13:49:33;67114.59;;;3.11;100.00
24746;BME280;12845;52.042;6.838;2023-01-28T13:54:37;67134.13;;;3.26;100.00
24746;BME280;12845;52.042;6.838;2023-01-28T14:09:52;67131.31;;;3.24;100.00
24746;BME280;12845;52.042;6.838;2023-01-28T14:22:15;67131.88;;;3.24;100.00
24746;BME280;12845;52.042;6.838;2023-01-28T14:31:57;67125.09;;;3.18;100.00
24746;BME280;12845;52.042;6.838;2023-01-28T14:39:17;67099.91;;;2.90;100.00
24746;BME280;12845;52.042;6.838;2023-01-28T14:41:44;67099.91;;;2.90;100.00
24746;BME280;12845;52.042;6.838;2023-01-28T14:46:39;67095.41;;;2.86;100.00
24746;BME280;12845;52.042;6.838;2023-01-28T14:49:34;67084.50;;;2.74;100.00
24746;BME280;12845;52.042;6.838;2023-01-28T14:59:22;67035.69;;;2.32;100.00
24746;BME280;12845;52.042;6.838;2023-01-28T15:01:53;67048.06;;;2.43;100.00
24746;BME280;12845;52.042;6.838;2023-01-28T15:04:26;67043.56;;;2.39;100.00
24746;BME280;12845;52.042;6.838;2023-01-28T15:09:17;67036.63;;;2.38;100.00
24746;BME280;12845;52.042;6.838;2023-01-28T15:11:43;67028.34;;;2.25;100.00
24746;BME280;12845;52.042;6.838;2023-01-28T15:16:34;67022.16;;;2.20;100.00
24746;BME280;12845;52.042;6.838;2023-01-28T15:21:25;67004.50;;;2.01;100.00
24746;BME280;12845;52.042;6.838;2023-01-28T15:23:52;67010.16;;;2.14;100.00
24746;BME280;12845;52.042;6.838;2023-01-28T15:26:20;67024.97;;;2.22;100.00
24746;BME280;12845;52.042;6.838;2023-01-28T15:31:30;67010.88;;;2.10;100.00
24746;BME280;12845;52.042;6.838;2023-01-28T15:34:12;67000.75;;;2.00;100.00
24746;BME280;12845;52.042;6.838;2023-01-28T15:39:03;66992.88;;;1.93;100.00
24746;BME280;12845;52.042;6.838;2023-01-28T15:41:31;66998.88;;;1.96;100.00
24746;BME280;12845;52.042;6.838;2023-01-28T15:53:44;66992.88;;;1.93;100.00
24746;BME280;12845;52.042;6.838;2023-01-28T15:56:11;66978.22;;;1.80;100.00
24746;BME280;12845;52.042;6.838;2023-01-28T15:58:37;66969.03;;;1.76;100.00
24746;BME280;12845;52.042;6.838;2023-01-28T16:03:37;66962.47;;;1.66;100.00
24746;BME280;12845;52.042;6.838;2023-01-28T16:20:34;66927.56;;;1.34;100.00
24746;BME280;12845;52.042;6.838;2023-01-28T16:23:01;66934.13;;;1.38;100.00
24746;BME280;12845;52.042;6.838;2023-01-28T16:25:30;66924.75;;;1.31;100.00
24746;BME280;12845;52.042;6.838;2023-01-28T16:27:57;66927.16;;;1.29;100.00
24746;BME280;12845;52.042;6.838;2023-01-28T16:30:22;66911.81;;;1.20;100.00
24746;BME280;12845;52.042;6.838;2023-01-28T16:35:15;66903.94;;;1.12;100.00
24746;BME280;12845;52.042;6.838;2023-01-28T16:40:07;66885.75;;;1.01;100.00
24746;BME280;12845;52.042;6.838;2023-01-28T16:44:58;66889.09;;;0.97;100.00
24746;BME280;12845;52.042;6.838;2023-01-28T16:47:23;66876.91;;;0.88;100.00
24746;BME280;12845;52.042;6.838;2023-01-28T16:54:39;66857.78;;;0.71;100.00
24746;BME280;12845;52.042;6.838;2023-01-28T16:57:07;66859.28;;;0.70;100.00
24746;BME280;12845;52.042;6.838;2023-01-28T16:59:34;66858.34;;;0.71;100.00
24746;BME280;12845;52.042;6.838;2023-01-28T17:02:00;66855.91;;;0.66;100.00
24746;BME280;12845;52.042;6.838;2023-01-28T17:04:25;66852.72;;;0.66;100.00
24746;BME280;12845;52.042;6.838;2023-01-28T17:09:16;66846.16;;;0.55;100.00
24746;BME280;12845;52.042;6.838;2023-01-28T17:11:41;66831.34;;;0.47;100.00
24746;BME280;12845;52.042;6.838;2023-01-28T17:14:07;66827.41;;;0.43;100.00
24746;BME280;12845;52.042;6.838;2023-01-28T17:16:32;66827.78;;;0.41;100.00
24746;BME280;12845;52.042;6.838;2023-01-28T17:18:58;66825.53;;;0.39;100.00
24746;BME280;12845;52.042;6.838;2023-01-28T17:21:23;66825.72;;;0.41;100.00
24746;BME280;12845;52.042;6.838;2023-01-28T17:23:49;66811.50;;;0.33;100.00
24746;BME280;12845;52.042;6.838;2023-01-28T17:26:15;66819.91;;;0.34;100.00
24746;BME280;12845;52.042;6.838;2023-01-28T17:28:41;66810.91;;;0.26;100.00
24746;BME280;12845;52.042;6.838;2023-01-28T17:31:07;66809.97;;;0.27;100.00
24746;BME280;12845;52.042;6.838;2023-01-28T17:33:32;66810.53;;;0.28;100.00
24746;BME280;12845;52.042;6.838;2023-01-28T17:35:59;66801.91;;;0.17;100.00
24746;BME280;12845;52.042;6.838;2023-01-28T17:38:24;66799.31;;;0.17;100.00
24746;BME280;12845;52.042;6.838;2023-01-28T17:40:50;66791.41;;;0.10;100.00
24746;BME280;12845;52.042;6.838;2023-01-28T17:43:15;66786.94;;;0.06;100.00
24746;BME280;12845;52.042;6.838;2023-01-28T17:45:40;66773.44;;;-0.06;100.00
24746;BME280;12845;52.042;6.838;2023-01-28T17:50:31;66756.00;;;-0.22;100.00
24746;BME280;12845;52.042;6.838;2023-01-28T17:55:22;66752.81;;;-0.30;100.00
24746;BME280;12845;52.042;6.838;2023-01-28T17:57:48;66743.09;;;-0.34;100.00
24746;BME280;12845;52.042;6.838;2023-01-28T18:00:13;66745.91;;;-0.31;100.00
24746;BME280;12845;52.042;6.838;2023-01-28T18:02:39;66750.19;;;-0.30;100.00
24746;BME280;12845;52.042;6.838;2023-01-28T18:05:04;66745.31;;;-0.32;100.00
24746;BME280;12845;52.042;6.838;2023-01-28T18:07:30;66748.13;;;-0.29;100.00
24746;BME280;12845;52.042;6.838;2023-01-28T18:09:55;66752.09;;;-0.26;100.00
24746;BME280;12845;52.042;6.838;2023-01-28T18:12:20;66747.56;;;-0.30;100.00
24746;BME280;12845;52.042;6.838;2023-01-28T18:14:45;66750.53;;;-0.32;100.00
24746;BME280;12845;52.042;6.838;2023-01-28T18:17:10;66747.56;;;-0.30;100.00
24746;BME280;12845;52.042;6.838;2023-01-28T18:19:36;66754.69;;;-0.26;100.00
24746;BME280;12845;52.042;6.838;2023-01-28T18:22:01;66756.00;;;-0.22;100.00
24746;BME280;12845;52.042;6.838;2023-01-28T18:24:27;66765.38;;;-0.16;100.00
24746;BME280;12845;52.042;6.838;2023-01-28T18:26:53;66763.31;;;-0.15;100.00
24746;BME280;12845;52.042;6.838;2023-01-28T18:29:19;66775.47;;;-0.07;100.00
24746;BME280;12845;52.042;6.838;2023-01-28T18:31:46;66774.56;;;-0.05;100.00
24746;BME280;12845;52.042;6.838;2023-01-28T18:34:12;66778.50;;;-0.02;100.00
24746;BME280;12845;52.042;6.838;2023-01-28T18:36:37;66786.34;;;-0.02;100.00
24746;BME280;12845;52.042;6.838;2023-01-28T18:39:02;66778.50;;;-0.02;100.00
24746;BME280;12845;52.042;6.838;2023-01-28T18:43:53;66784.28;;;-0.01;100.00
24746;BME280;12845;52.042;6.838;2023-01-28T18:48:43;66777.94;;;-0.02;100.00
24746;BME280;12845;52.042;6.838;2023-01-28T18:51:10;66779.59;;;-0.01;100.00
24746;BME280;12845;52.042;6.838;2023-01-28T18:56:02;66782.97;;;0.03;100.00
24746;BME280;12845;52.042;6.838;2023-01-28T18:58:27;66786.94;;;0.06;100.00
24746;BME280;12845;52.042;6.838;2023-01-28T19:00:52;66784.69;;;0.04;100.00
24746;BME280;12845;52.042;6.838;2023-01-28T19:03:18;66781.88;;;0.02;100.00
24746;BME280;12845;52.042;6.838;2023-01-28T19:05:43;66781.31;;;0.01;100.00
24746;BME280;12845;52.042;6.838;2023-01-28T19:12:58;66782.81;;;0.00;100.00
24746;BME280;12845;52.042;6.838;2023-01-28T19:15:24;66785.25;;;0.05;100.00
24746;BME280;12845;52.042;6.838;2023-01-28T19:20:15;66787.09;;;0.02;100.00
24746;BME280;12845;52.042;6.838;2023-01-28T19:22:40;66784.13;;;0.04;100.00
24746;BME280;12845;52.042;6.838;2023-01-28T19:25:05;66785.78;;;0.05;100.00
24746;BME280;12845;52.042;6.838;2023-01-28T19:27:31;66784.69;;;0.04;100.00
24746;BME280;12845;52.042;6.838;2023-01-28T19:29:56;66783.56;;;0.03;100.00
24746;BME280;12845;52.042;6.838;2023-01-28T19:34:47;66786.19;;;0.10;100.00
24746;BME280;12845;52.042;6.838;2023-01-28T19:37:12;66788.06;;;0.07;100.00
24746;BME280;12845;52.042;6.838;2023-01-28T19:39:37;66796.09;;;0.10;100.00
24746;BME280;12845;52.042;6.838;2023-01-28T19:42:02;66788.06;;;0.07;100.00
24746;BME280;12845;52.042;6.838;2023-01-28T19:46:53;66783.56;;;0.03;100.00
24746;BME280;12845;52.042;6.838;2023-01-28T19:49:18;66781.31;;;0.01;100.00
24746;BME280;12845;52.042;6.838;2023-01-28T19:54:09;66787.84;;;0.05;100.00
24746;BME280;12845;52.042;6.838;2023-01-28T19:56:34;66779.06;;;-0.01;100.00
24746;BME280;12845;52.042;6.838;2023-01-28T19:59:01;66780.75;;;0.01;100.00
24746;BME280;12845;52.042;6.838;2023-01-28T20:01:27;66776.78;;;-0.03;100.00
24746;BME280;12845;52.042;6.838;2023-01-28T20:03:53;66780.75;;;0.01;100.00